Time;durP1;ratioP1;P1;durP2;ratioP2;P2;SDS_P1;SDS_P2;PMS_P1;PMS_P2;Temp;Humidity;BMP_temperature;BMP_pressure;BME280_temperature;BME280_humidity;BME280_pressure;Samples;Min_cycle;Max_cycle;Signal;HPM_P1;HPM_P2
2020/12/20 00:01:39;;;;;;;13.50;4.90;;;10.50;99.90;;;;;;4975339;28;20236;-91
2020/12/20 00:04:07;;;;;;;6.37;3.73;;;10.50;99.90;;;;;;4976323;28;20213;-91
2020/12/20 00:06:38;;;;;;;10.50;4.13;;;10.50;99.90;;;;;;4975672;28;20231;-91
2020/12/20 00:09:09;;;;;;;10.53;4.17;;;10.50;99.90;;;;;;4975618;28;20583;-90
2020/12/20 00:11:39;;;;;;;10.63;4.30;;;10.60;99.90;;;;;;4958707;28;20212;-91
2020/12/20 00:14:26;;;;;;;6.87;3.67;;;10.60;99.90;;;;;;4968126;28;20205;-91
2020/12/20 00:16:53;;;;;;;10.65;4.90;;;10.60;99.90;;;;;;4974709;28;20491;-90
2020/12/20 00:19:21;;;;;;;16.27;4.37;;;10.70;99.90;;;;;;4958441;28;20301;-91
2020/12/20 00:21:53;;;;;;;14.80;3.97;;;10.80;99.90;;;;;;4975491;28;20715;-91
2020/12/20 00:24:19;;;;;;;12.27;4.33;;;10.80;99.90;;;;;;4975382;28;20209;-91
2020/12/20 00:26:45;;;;;;;9.10;4.07;;;10.80;99.90;;;;;;4975222;28;20226;-91
2020/12/20 00:29:12;;;;;;;12.30;3.93;;;10.80;99.90;;;;;;4958389;28;20208;-90
2020/12/20 00:31:38;;;;;;;12.10;4.20;;;10.70;99.90;;;;;;4975553;28;20205;-90
2020/12/20 00:34:05;;;;;;;16.20;3.90;;;10.70;99.90;;;;;;4975354;28;20209;-90
2020/12/20 00:36:33;;;;;;;13.83;3.70;;;10.60;99.90;;;;;;4958498;28;20697;-90
2020/12/20 00:39:00;;;;;;;11.30;4.20;;;10.70;99.90;;;;;;4975481;28;20197;-91
2020/12/20 00:41:26;;;;;;;10.67;4.00;;;10.70;99.90;;;;;;4975075;28;20240;-90
2020/12/20 00:43:52;;;;;;;14.93;4.40;;;10.70;99.90;;;;;;4975083;28;20216;-90
2020/12/20 00:46:19;;;;;;;16.67;4.13;;;10.60;99.90;;;;;;4974786;28;20228;-90
2020/12/20 00:48:45;;;;;;;10.60;4.03;;;10.60;99.90;;;;;;4975103;28;20211;-91
2020/12/20 00:51:12;;;;;;;15.80;4.10;;;10.60;99.90;;;;;;4958009;28;20264;-90
2020/12/20 00:53:39;;;;;;;10.53;4.70;;;10.70;99.90;;;;;;4958141;28;20205;-90
2020/12/20 00:56:06;;;;;;;10.57;4.00;;;10.60;99.90;;;;;;4975273;28;20237;-91
2020/12/20 00:58:33;;;;;;;9.50;3.60;;;10.60;99.90;;;;;;4975065;28;20193;-91
2020/12/20 01:01:00;;;;;;;8.47;4.13;;;10.60;99.90;;;;;;4975006;28;20692;-91
2020/12/20 01:03:26;;;;;;;8.27;3.77;;;10.50;99.90;;;;;;4975261;28;20194;-91
2020/12/20 01:05:52;;;;;;;9.90;4.43;;;10.50;99.90;;;;;;4975422;28;20194;-90
2020/12/20 01:08:19;;;;;;;10.13;3.90;;;10.50;99.90;;;;;;4975021;28;20255;-90
2020/12/20 01:10:46;;;;;;;8.20;4.00;;;10.60;99.90;;;;;;4957944;28;20548;-90
2020/12/20 01:13:13;;;;;;;10.00;4.67;;;10.50;99.90;;;;;;4977383;28;20217;-91
2020/12/20 01:15:39;;;;;;;10.77;3.77;;;10.50;99.90;;;;;;4979411;28;20560;-90
2020/12/20 01:18:05;;;;;;;8.20;3.63;;;10.40;99.90;;;;;;4979044;28;20312;-91
2020/12/20 01:20:32;;;;;;;11.57;4.27;;;10.40;99.90;;;;;;4978482;28;20232;-90
2020/12/20 01:22:58;;;;;;;9.83;4.17;;;10.50;99.90;;;;;;4978597;28;20247;-91
2020/12/20 01:25:25;;;;;;;13.77;4.87;;;10.50;99.90;;;;;;4978895;28;20217;-91
2020/12/20 01:27:52;;;;;;;10.10;4.33;;;10.40;99.90;;;;;;4978402;28;20701;-91
2020/12/20 01:30:18;;;;;;;11.47;4.47;;;10.30;99.90;;;;;;4978873;28;20248;-91
2020/12/20 01:32:45;;;;;;;13.70;5.00;;;10.20;99.90;;;;;;4961293;28;20290;-90
2020/12/20 01:35:11;;;;;;;12.37;4.73;;;10.30;99.90;;;;;;4978766;28;20197;-90
2020/12/20 01:37:38;;;;;;;11.17;4.53;;;10.30;99.90;;;;;;4978548;28;20253;-91
2020/12/20 01:40:05;;;;;;;7.73;4.57;;;10.30;99.90;;;;;;4978305;28;20216;-91
2020/12/20 01:42:31;;;;;;;11.73;4.70;;;10.20;99.90;;;;;;4978455;28;20651;-91
2020/12/20 01:44:58;;;;;;;14.43;5.67;;;10.40;99.90;;;;;;4978413;28;20213;-91
2020/12/20 01:47:26;;;;;;;9.10;4.53;;;10.50;99.90;;;;;;4978073;28;20221;-91
2020/12/20 01:49:54;;;;;;;11.17;4.20;;;10.40;99.90;;;;;;4960964;28;20213;-92
2020/12/20 01:52:20;;;;;;;14.67;4.80;;;10.40;99.90;;;;;;4978485;28;20691;-91
2020/12/20 01:54:50;;;;;;;14.00;4.73;;;10.30;99.90;;;;;;4979068;28;20559;-91
2020/12/20 01:57:17;;;;;;;11.37;4.33;;;10.40;99.90;;;;;;4978315;28;20221;-92
2020/12/20 01:59:43;;;;;;;8.97;4.10;;;10.20;99.90;;;;;;4977892;28;20193;-91
2020/12/20 02:02:10;;;;;;;19.30;4.50;;;10.30;99.90;;;;;;4977895;28;20247;-91
2020/12/20 02:04:37;;;;;;;11.50;4.20;;;10.40;99.90;;;;;;4978174;28;20197;-91
2020/12/20 02:07:03;;;;;;;12.63;4.60;;;10.40;99.90;;;;;;4977797;28;20681;-92
2020/12/20 02:09:30;;;;;;;11.90;4.57;;;10.40;99.90;;;;;;4977823;28;20213;-91
2020/12/20 02:12:02;;;;;;;13.20;4.60;;;10.30;99.90;;;;;;4978116;28;20220;-92
2020/12/20 02:14:29;;;;;;;11.60;4.30;;;10.20;99.90;;;;;;4977653;28;20211;-92
2020/12/20 02:16:55;;;;;;;10.33;3.90;;;10.20;99.90;;;;;;4977789;28;20572;-91
2020/12/20 02:19:22;;;;;;;12.57;3.83;;;10.30;99.90;;;;;;4978009;28;20260;-91
2020/12/20 02:21:50;;;;;;;13.07;5.07;;;10.30;99.90;;;;;;4977412;28;20650;-92
2020/12/20 02:24:16;;;;;;;13.27;5.33;;;10.30;99.90;;;;;;4978059;28;20196;-92
2020/12/20 02:26:43;;;;;;;14.70;4.10;;;10.30;99.90;;;;;;4977274;28;20232;-91
2020/12/20 02:29:09;;;;;;;12.77;5.30;;;10.20;99.90;;;;;;4978076;28;20240;-91
2020/12/20 02:31:36;;;;;;;11.83;4.50;;;10.20;99.90;;;;;;4977575;28;20205;-91
2020/12/20 02:34:03;;;;;;;13.10;4.40;;;10.20;99.90;;;;;;4977648;28;20193;-92
2020/12/20 02:36:29;;;;;;;12.10;4.30;;;10.20;99.90;;;;;;4977311;28;20225;-91
2020/12/20 02:38:57;;;;;;;12.13;4.20;;;10.10;99.90;;;;;;4977430;28;20205;-92
2020/12/20 02:41:23;;;;;;;8.33;3.70;;;10.10;99.90;;;;;;4977966;28;20318;-91
2020/12/20 02:43:50;;;;;;;14.90;5.20;;;10.10;99.90;;;;;;4977047;28;20215;-91
2020/12/20 02:46:17;;;;;;;14.00;4.80;;;10.20;99.90;;;;;;4977263;28;20225;-92
2020/12/20 02:48:45;;;;;;;10.00;4.93;;;10.20;99.90;;;;;;4977673;28;20209;-93
2020/12/20 02:51:12;;;;;;;15.20;4.20;;;10.30;99.90;;;;;;4977611;28;20213;-91
2020/12/20 02:53:38;;;;;;;13.60;4.70;;;10.30;99.90;;;;;;4977702;28;20544;-92
2020/12/20 02:56:05;;;;;;;7.73;4.30;;;10.20;99.90;;;;;;4979124;28;20353;-92
2020/12/20 02:58:32;;;;;;;13.00;4.40;;;10.20;99.90;;;;;;4962844;28;20220;-92
2020/12/20 03:00:58;;;;;;;12.63;4.50;;;10.30;99.90;;;;;;4978654;28;20544;-92
2020/12/20 03:03:24;;;;;;;13.43;4.27;;;10.20;99.90;;;;;;4977595;28;20205;-91
2020/12/20 03:05:51;;;;;;;14.50;4.53;;;10.20;99.90;;;;;;4977386;28;20189;-91
2020/12/20 03:08:17;;;;;;;7.77;4.17;;;10.30;99.90;;;;;;4977062;28;20217;-92
2020/12/20 03:10:43;;;;;;;15.43;5.80;;;10.20;99.90;;;;;;4976252;28;20435;-91
2020/12/20 03:13:11;;;;;;;12.93;4.57;;;10.30;99.90;;;;;;4977263;28;20575;-91
2020/12/20 03:15:41;;;;;;;16.10;4.67;;;10.20;99.90;;;;;;4977516;28;20570;-91
2020/12/20 03:18:08;;;;;;;12.63;4.97;;;10.20;99.90;;;;;;4977734;28;20649;-92
2020/12/20 03:20:34;;;;;;;11.47;4.53;;;10.20;99.90;;;;;;4976792;28;20200;-92
2020/12/20 03:23:00;;;;;;;14.03;4.43;;;10.10;99.90;;;;;;4976562;28;20300;-92
2020/12/20 03:25:27;;;;;;;14.07;4.60;;;10.00;99.90;;;;;;4976136;28;20592;-90
2020/12/20 03:27:53;;;;;;;21.00;5.10;;;10.00;99.90;;;;;;4976347;28;20237;-92
2020/12/20 03:30:21;;;;;;;10.53;4.27;;;10.10;99.90;;;;;;4976430;28;20573;-92
2020/12/20 03:32:48;;;;;;;13.33;4.50;;;10.10;99.90;;;;;;4976932;28;20256;-92
2020/12/20 03:35:14;;;;;;;14.10;4.70;;;10.10;99.90;;;;;;4975610;28;20194;-89
2020/12/20 03:37:49;;;;;;;16.20;4.57;;;10.20;99.90;;;;;;4976143;28;20229;-89
2020/12/20 03:40:16;;;;;;;14.10;5.10;;;10.30;99.90;;;;;;4977992;28;20632;-89
2020/12/20 03:42:42;;;;;;;12.13;4.60;;;10.10;99.90;;;;;;4976434;28;20245;-91
2020/12/20 03:45:08;;;;;;;18.30;6.53;;;10.10;99.90;;;;;;4976770;28;20213;-92
2020/12/20 03:47:36;;;;;;;20.07;5.07;;;10.00;99.90;;;;;;4975989;28;20681;-92
2020/12/20 03:50:03;;;;;;;18.37;4.90;;;10.00;99.90;;;;;;4958650;28;20209;-91
2020/12/20 03:52:29;;;;;;;17.73;4.80;;;10.00;99.90;;;;;;4976543;28;20223;-91
2020/12/20 03:54:55;;;;;;;13.20;4.00;;;10.00;99.90;;;;;;4959370;28;20205;-91
2020/12/20 03:57:22;;;;;;;15.33;5.13;;;9.90;99.90;;;;;;4975956;28;20615;-92
2020/12/20 03:59:48;;;;;;;15.68;4.72;;;10.00;99.90;;;;;;4976060;28;20448;-91
2020/12/20 04:02:14;;;;;;;19.30;5.00;;;10.10;99.90;;;;;;4975514;28;20229;-91
2020/12/20 04:04:41;;;;;;;11.63;4.60;;;10.20;99.90;;;;;;4975693;28;20200;-91
2020/12/20 04:07:08;;;;;;;17.87;4.33;;;10.20;99.90;;;;;;4976348;28;20240;-91
2020/12/20 04:09:34;;;;;;;20.50;4.90;;;10.10;99.90;;;;;;4958808;28;20227;-92
2020/12/20 04:12:02;;;;;;;17.43;5.70;;;10.10;99.90;;;;;;4975908;28;20209;-91
2020/12/20 04:14:28;;;;;;;15.97;4.53;;;10.00;99.90;;;;;;4975889;28;20607;-92
2020/12/20 04:16:55;;;;;;;13.67;4.53;;;10.10;99.90;;;;;;4975337;28;20228;-92
2020/12/20 04:19:21;;;;;;;15.60;4.93;;;10.00;99.90;;;;;;4975442;28;20190;-91
2020/12/20 04:21:48;;;;;;;19.87;5.57;;;10.00;99.90;;;;;;4975722;28;20252;-92
2020/12/20 04:24:15;;;;;;;16.37;4.83;;;10.00;99.90;;;;;;4975768;28;20209;-91
2020/12/20 04:26:42;;;;;;;18.27;4.33;;;9.90;99.90;;;;;;4975460;28;20229;-91
2020/12/20 04:29:08;;;;;;;11.77;4.93;;;10.00;99.90;;;;;;4975549;28;20196;-92
2020/12/20 04:31:35;;;;;;;16.97;4.30;;;10.00;99.90;;;;;;4958309;28;20252;-91
2020/12/20 04:34:01;;;;;;;18.40;4.20;;;9.90;99.90;;;;;;4975319;28;20197;-91
2020/12/20 04:36:28;;;;;;;16.97;4.90;;;9.90;99.90;;;;;;4975181;28;20599;-91
2020/12/20 04:38:55;;;;;;;19.23;4.90;;;9.80;99.90;;;;;;4975762;28;20216;-91
2020/12/20 04:41:23;;;;;;;14.20;3.90;;;9.70;99.90;;;;;;4974952;28;20243;-92
2020/12/20 04:46:49;;;;;;;14.33;5.23;;;9.90;99.90;;;;;;5011530;23;20237;-91
2020/12/20 04:49:15;;;;;;;15.50;4.27;;;9.90;99.90;;;;;;4975316;28;20280;-93
2020/12/20 04:51:43;;;;;;;17.80;5.57;;;9.70;99.90;;;;;;4974539;28;20436;-92
2020/12/20 04:54:11;;;;;;;15.43;4.10;;;9.60;99.90;;;;;;4974806;28;20221;-92
2020/12/20 04:56:38;;;;;;;16.20;4.47;;;9.70;99.90;;;;;;4955134;29;20233;-91
2020/12/20 04:59:06;;;;;;;20.27;5.03;;;9.60;99.90;;;;;;4975077;28;20259;-91
2020/12/20 05:01:33;;;;;;;17.50;5.00;;;9.60;99.90;;;;;;4975195;28;20290;-93
2020/12/20 05:04:00;;;;;;;14.23;4.23;;;9.60;99.90;;;;;;4974773;28;20213;-93
2020/12/20 05:06:27;;;;;;;23.90;4.87;;;9.50;99.90;;;;;;4975259;28;20225;-93
2020/12/20 05:08:59;;;;;;;15.57;4.50;;;9.60;99.90;;;;;;4975572;28;20228;-92
2020/12/20 05:14:14;;;;;;;18.80;4.60;;;9.60;99.90;;;;;;5031391;23;20717;-89
2020/12/20 05:16:41;;;;;;;27.37;5.03;;;9.60;99.90;;;;;;4975774;28;20288;-89
2020/12/20 05:19:14;;;;;;;23.83;5.37;;;9.50;99.90;;;;;;4976371;28;20209;-91
2020/12/20 05:21:43;;;;;;;20.17;5.37;;;9.50;99.90;;;;;;4974980;28;20284;-90
2020/12/20 05:24:25;;;;;;;16.10;5.00;;;9.40;99.90;;;;;;4974769;28;20353;-91
2020/12/20 05:26:51;;;;;;;18.17;4.70;;;9.40;99.90;;;;;;4975266;28;20235;-90
2020/12/20 05:32:03;;;;;;;15.77;4.57;;;9.60;99.90;;;;;;5017936;23;20690;-91
2020/12/20 05:34:29;;;;;;;23.10;5.03;;;9.50;99.90;;;;;;4975053;28;20219;-92
2020/12/20 05:37:07;;;;;;;21.23;4.70;;;9.40;99.90;;;;;;4974546;28;20252;-92
2020/12/20 05:39:37;;;;;;;20.37;5.00;;;9.30;99.90;;;;;;4974656;28;20197;-92
2020/12/20 05:42:06;;;;;;;19.40;6.20;;;9.30;99.90;;;;;;4957526;28;20816;-93
2020/12/20 05:44:35;;;;;;;21.97;4.27;;;9.30;99.90;;;;;;4957676;28;20231;-91
2020/12/20 05:47:06;;;;;;;18.40;4.33;;;9.40;99.90;;;;;;4974736;28;20248;-91
2020/12/20 05:52:27;;;;;;;22.23;4.73;;;9.40;99.90;;;;;;4992923;23;20260;-91
2020/12/20 05:54:53;;;;;;;17.93;4.53;;;9.40;99.90;;;;;;4974589;28;20205;-91
2020/12/20 05:57:21;;;;;;;17.27;4.90;;;9.40;99.90;;;;;;4975301;28;20749;-92
2020/12/20 05:59:48;;;;;;;21.47;4.93;;;9.40;99.90;;;;;;4978312;28;20285;-91
2020/12/20 06:02:16;;;;;;;21.83;4.83;;;9.40;99.90;;;;;;4959346;29;20229;-91
2020/12/20 06:04:44;;;;;;;15.70;4.47;;;9.40;99.90;;;;;;4975393;28;20252;-92
2020/12/20 06:07:12;;;;;;;17.37;4.27;;;9.30;99.90;;;;;;4977671;28;20235;-92
2020/12/20 06:09:52;;;;;;;16.03;5.07;;;9.30;99.90;;;;;;4978362;28;20256;-92
2020/12/20 06:12:20;;;;;;;15.20;4.60;;;9.30;99.90;;;;;;4978280;28;20219;-92
2020/12/20 06:14:47;;;;;;;17.30;4.33;;;9.30;99.90;;;;;;4958283;28;20234;-92
2020/12/20 06:17:18;;;;;;;17.10;4.23;;;9.20;99.90;;;;;;4978005;28;20224;-90
2020/12/20 06:22:54;;;;;;;17.53;4.43;;;9.20;99.90;;;;;;5003483;23;20663;-91
2020/12/20 06:25:23;;;;;;;24.13;4.47;;;9.20;99.90;;;;;;4977765;28;20217;-92
2020/12/20 06:27:51;;;;;;;21.37;4.30;;;9.20;99.90;;;;;;4978594;28;20229;-89
2020/12/20 06:30:20;;;;;;;14.47;4.30;;;9.20;99.90;;;;;;4979673;28;20200;-89
2020/12/20 06:47:03;;;;;;;19.73;4.60;;;9.30;99.90;;;;;;5277784;23;20265;-89
2020/12/20 06:50:01;;;;;;;23.60;4.33;;;9.20;99.90;;;;;;4960778;28;20205;-91
2020/12/20 06:52:28;;;;;;;17.07;5.03;;;9.20;99.90;;;;;;4960652;28;20209;-90
2020/12/20 07:16:11;;;;;;;23.73;5.07;;;9.50;99.90;;;;;;5017977;23;21585;-87
2020/12/20 07:24:12;;;;;;;19.07;4.50;;;9.70;99.90;;;;;;5007008;23;20567;-91
2020/12/20 07:26:39;;;;;;;20.33;5.63;;;9.60;99.90;;;;;;4957176;29;20234;-90
2020/12/20 07:29:07;;;;;;;21.53;5.23;;;9.70;99.90;;;;;;4940025;29;20209;-92
2020/12/20 07:31:34;;;;;;;18.87;4.87;;;9.70;99.90;;;;;;4957306;29;20214;-92
2020/12/20 07:34:02;;;;;;;18.27;4.80;;;9.80;99.90;;;;;;4956904;29;20224;-92
2020/12/20 07:36:29;;;;;;;18.13;4.33;;;9.80;99.90;;;;;;4957316;29;20234;-91
2020/12/20 07:38:55;;;;;;;16.63;4.10;;;9.70;99.90;;;;;;4939676;29;20206;-92
2020/12/20 07:41:24;;;;;;;17.87;4.07;;;9.80;99.90;;;;;;4956690;29;20678;-91
2020/12/20 07:43:51;;;;;;;20.50;4.83;;;9.70;99.90;;;;;;4956768;29;20230;-92
2020/12/20 07:46:19;;;;;;;15.13;4.47;;;9.80;99.90;;;;;;4957470;29;20237;-93
2020/12/20 07:48:46;;;;;;;16.53;5.03;;;9.70;99.90;;;;;;4956957;29;20198;-93
2020/12/20 07:51:14;;;;;;;20.97;4.93;;;9.70;99.90;;;;;;4956716;29;20225;-92
2020/12/20 07:56:29;;;;;;;13.40;4.40;;;9.70;99.90;;;;;;5002433;23;20608;-92
2020/12/20 07:58:57;;;;;;;16.40;3.97;;;9.70;99.90;;;;;;4976309;28;20198;-91
2020/12/20 08:01:24;;;;;;;21.97;4.07;;;9.70;99.90;;;;;;4976108;28;20241;-92
2020/12/20 08:04:01;;;;;;;16.00;4.60;;;9.80;99.90;;;;;;4976512;28;20539;-92
2020/12/20 08:06:27;;;;;;;18.67;4.03;;;9.70;99.90;;;;;;4975751;28;20224;-92
2020/12/20 08:09:01;;;;;;;14.90;4.70;;;9.70;99.90;;;;;;4975917;28;20285;-92
2020/12/20 08:11:28;;;;;;;19.63;4.23;;;9.60;99.90;;;;;;4958491;28;20248;-91
2020/12/20 08:13:56;;;;;;;23.97;4.93;;;9.70;99.90;;;;;;4975887;28;20201;-90
2020/12/20 08:16:24;;;;;;;14.80;4.40;;;9.60;99.90;;;;;;4959621;28;20229;-89
2020/12/20 08:24:36;;;;;;;16.93;4.50;;;9.60;99.90;;;;;;5028793;23;20253;-88
2020/12/20 08:29:55;;;;;;;21.77;5.07;;;9.70;99.90;;;;;;5171249;23;20241;-90
2020/12/20 08:41:21;;;;;;;20.30;5.00;;;9.70;99.90;;;;;;4992170;23;20244;-90
2020/12/20 08:43:47;;;;;;;19.67;4.80;;;9.70;99.90;;;;;;4975669;28;20215;-93
2020/12/20 08:46:30;;;;;;;24.30;5.43;;;9.70;99.90;;;;;;4974931;28;20315;-92
2020/12/20 08:49:20;;;;;;;13.37;4.47;;;9.70;99.90;;;;;;4975148;28;20633;-90
2020/12/20 08:51:48;;;;;;;21.83;5.03;;;9.70;99.90;;;;;;4957826;28;20201;-92
2020/12/20 08:54:24;;;;;;;17.37;4.77;;;9.90;99.90;;;;;;4975694;28;20205;-92
2020/12/20 08:57:02;;;;;;;22.53;5.03;;;10.00;99.90;;;;;;4975670;28;20685;-90
2020/12/20 08:59:40;;;;;;;25.27;5.40;;;9.90;99.90;;;;;;4975767;28;20288;-92
2020/12/20 09:02:07;;;;;;;18.03;4.90;;;9.90;99.90;;;;;;4974873;28;20237;-93
2020/12/20 09:04:36;;;;;;;20.57;4.43;;;9.90;99.90;;;;;;4975170;28;20194;-93
2020/12/20 09:07:05;;;;;;;20.13;4.77;;;9.90;99.90;;;;;;4961029;28;20284;-89
2020/12/20 09:09:32;;;;;;;21.10;4.80;;;9.90;99.90;;;;;;4975181;28;20295;-91
2020/12/20 09:15:10;;;;;;;19.13;6.53;;;9.90;99.90;;;;;;4991146;23;20248;-92
2020/12/20 09:17:39;;;;;;;18.57;4.73;;;10.00;99.90;;;;;;4974985;28;20229;-92
2020/12/20 09:20:08;;;;;;;17.77;4.97;;;9.90;99.90;;;;;;4975519;28;20696;-91
2020/12/20 09:22:46;;;;;;;18.53;5.20;;;10.00;99.90;;;;;;4974841;28;20227;-91
2020/12/20 09:25:14;;;;;;;14.90;5.63;;;10.30;99.90;;;;;;4975132;28;20216;-93
2020/12/20 09:27:52;;;;;;;13.60;4.93;;;10.30;99.90;;;;;;4974857;28;20233;-92
2020/12/20 09:30:32;;;;;;;19.93;5.53;;;10.30;99.90;;;;;;4974861;28;20208;-92
2020/12/20 09:32:59;;;;;;;22.23;4.27;;;10.40;99.90;;;;;;4975215;28;20193;-92
2020/12/20 09:35:25;;;;;;;13.10;4.60;;;10.40;99.90;;;;;;4978743;28;20213;-90
2020/12/20 09:37:53;;;;;;;14.60;4.47;;;10.40;99.90;;;;;;4978337;28;20236;-91
2020/12/20 09:40:19;;;;;;;18.85;4.72;;;10.40;99.90;;;;;;4978320;28;20458;-92
2020/12/20 09:42:47;;;;;;;19.10;4.47;;;10.50;99.90;;;;;;4978299;28;20696;-92
2020/12/20 09:45:13;;;;;;;18.60;4.93;;;10.60;99.90;;;;;;4961442;28;20677;-92
2020/12/20 09:47:42;;;;;;;16.40;4.43;;;10.60;99.90;;;;;;4978103;28;20292;-91
2020/12/20 09:53:12;;;;;;;18.47;4.80;;;10.60;99.90;;;;;;5048238;23;20259;-90
2020/12/20 09:55:41;;;;;;;19.67;4.63;;;10.50;99.90;;;;;;4978271;28;20209;-91
2020/12/20 09:58:09;;;;;;;23.20;5.13;;;10.50;99.90;;;;;;4959602;29;20269;-91
2020/12/20 10:00:35;;;;;;;19.50;4.83;;;10.50;99.90;;;;;;4958764;29;20209;-91
2020/12/20 10:03:03;;;;;;;19.67;4.80;;;10.60;99.90;;;;;;4941762;29;20724;-91
2020/12/20 10:05:30;;;;;;;23.77;4.43;;;10.60;99.90;;;;;;4958794;29;20190;-91
2020/12/20 10:07:56;;;;;;;18.97;4.17;;;10.70;99.90;;;;;;4958696;29;20319;-90
2020/12/20 10:10:23;;;;;;;16.50;3.87;;;10.80;99.90;;;;;;4958993;29;20210;-91
2020/12/20 10:12:49;;;;;;;21.13;5.97;;;10.80;99.90;;;;;;4957569;28;20220;-91
2020/12/20 10:15:15;;;;;;;16.67;4.77;;;10.80;99.90;;;;;;4959055;29;20229;-91
2020/12/20 10:17:42;;;;;;;17.77;4.43;;;10.90;99.90;;;;;;4958675;29;20235;-91
2020/12/20 10:20:09;;;;;;;26.57;5.13;;;10.90;99.90;;;;;;4959038;29;20208;-91
2020/12/20 10:22:36;;;;;;;15.30;4.13;;;10.90;99.90;;;;;;4957541;29;20229;-91
2020/12/20 10:25:02;;;;;;;18.03;5.20;;;10.80;99.90;;;;;;4941386;29;20205;-90
2020/12/20 10:27:29;;;;;;;17.50;4.20;;;10.90;99.90;;;;;;4958447;29;20241;-91
2020/12/20 10:29:55;;;;;;;16.57;4.77;;;11.00;99.90;;;;;;4958714;29;20210;-92
2020/12/20 10:32:21;;;;;;;20.33;5.10;;;11.00;99.90;;;;;;4958341;29;20202;-90
2020/12/20 10:34:48;;;;;;;18.53;4.07;;;10.90;99.90;;;;;;4958995;29;20190;-91
2020/12/20 10:37:15;;;;;;;23.23;4.23;;;10.90;99.90;;;;;;4958636;29;20295;-91
2020/12/20 10:39:42;;;;;;;13.97;4.20;;;11.00;99.90;;;;;;4958406;29;20260;-89
2020/12/20 11:15:48;;;;;;;17.13;4.70;;;11.00;99.90;;;;;;1002175;23;20403;-88
2020/12/20 11:18:14;;;;;;;17.33;4.27;;;11.10;99.90;;;;;;4917183;29;20215;-92
2020/12/20 11:20:41;;;;;;;26.30;4.10;;;11.20;99.90;;;;;;4902169;29;20207;-92
2020/12/20 11:23:07;;;;;;;17.07;5.13;;;11.20;99.90;;;;;;4918726;29;20230;-91
2020/12/20 11:25:34;;;;;;;15.93;4.00;;;11.20;99.90;;;;;;4919397;29;20221;-90
2020/12/20 11:28:01;;;;;;;13.67;4.27;;;11.20;99.90;;;;;;4918871;29;20601;-89
2020/12/20 11:30:27;;;;;;;21.97;3.70;;;11.20;99.90;;;;;;4919385;29;20287;-91
2020/12/20 11:32:54;;;;;;;14.90;3.97;;;11.20;99.90;;;;;;4918938;29;20212;-92
2020/12/20 11:35:21;;;;;;;15.37;3.80;;;11.20;99.90;;;;;;4919483;29;20215;-92
2020/12/20 11:40:31;;;;;;;20.70;4.20;;;11.20;99.90;;;;;;4982980;23;20699;-92
2020/12/20 11:42:57;;;;;;;25.37;5.53;;;11.40;99.90;;;;;;4935678;29;20691;-92
2020/12/20 11:45:24;;;;;;;12.17;4.80;;;11.30;99.90;;;;;;4937694;29;20207;-91
2020/12/20 11:47:50;;;;;;;15.63;3.70;;;11.30;99.90;;;;;;4937751;29;20236;-91
2020/12/20 11:50:17;;;;;;;16.73;4.07;;;11.40;99.90;;;;;;4937524;29;20562;-89
2020/12/20 11:52:44;;;;;;;18.33;4.53;;;11.50;99.90;;;;;;4937539;29;20206;-91
2020/12/20 11:55:10;;;;;;;18.73;4.27;;;11.50;99.90;;;;;;4938051;29;20592;-91
2020/12/20 11:57:36;;;;;;;14.47;4.20;;;11.40;99.90;;;;;;4936837;29;20789;-90
2020/12/20 12:00:04;;;;;;;13.37;4.03;;;11.50;99.90;;;;;;4937314;29;20289;-89
2020/12/20 12:02:32;;;;;;;18.67;4.40;;;11.40;99.90;;;;;;4937295;29;20231;-91
2020/12/20 12:04:58;;;;;;;18.50;4.53;;;11.30;99.90;;;;;;4936954;29;20279;-90
2020/12/20 12:07:26;;;;;;;15.20;3.97;;;11.40;99.90;;;;;;4937426;29;20239;-91
2020/12/20 12:09:52;;;;;;;15.60;3.77;;;11.50;99.90;;;;;;4937984;29;20220;-92
2020/12/20 12:12:19;;;;;;;17.07;4.20;;;11.70;99.90;;;;;;4937356;29;20796;-91
2020/12/20 12:14:46;;;;;;;25.23;4.07;;;11.60;99.90;;;;;;4937537;29;20249;-91
2020/12/20 12:17:13;;;;;;;17.67;3.83;;;11.50;99.90;;;;;;4937244;29;20230;-91
2020/12/20 12:19:39;;;;;;;13.87;3.53;;;11.30;99.90;;;;;;4937011;29;20216;-92
2020/12/20 12:22:05;;;;;;;19.40;4.13;;;11.30;99.90;;;;;;4937225;29;20218;-91
2020/12/20 12:24:32;;;;;;;14.97;3.27;;;11.30;99.90;;;;;;4936951;29;20219;-92
2020/12/20 12:26:59;;;;;;;16.13;3.87;;;11.30;99.90;;;;;;4936646;29;20706;-91
2020/12/20 12:29:25;;;;;;;19.40;3.90;;;11.30;99.90;;;;;;4937668;29;20207;-91
2020/12/20 12:31:51;;;;;;;13.07;3.97;;;11.30;99.90;;;;;;4937394;29;20218;-91
2020/12/20 12:34:18;;;;;;;16.43;4.93;;;11.30;99.90;;;;;;4936440;29;20206;-92
2020/12/20 12:36:44;;;;;;;13.77;4.00;;;11.40;99.90;;;;;;4936810;29;20314;-91
2020/12/20 12:39:10;;;;;;;18.73;4.17;;;11.50;99.90;;;;;;4936772;29;20262;-91
2020/12/20 12:41:37;;;;;;;11.93;3.37;;;11.60;99.90;;;;;;4937273;29;20289;-92
2020/12/20 12:44:04;;;;;;;10.07;3.30;;;11.50;99.90;;;;;;4938093;29;20207;-91
2020/12/20 12:46:30;;;;;;;13.97;3.87;;;11.50;99.90;;;;;;4942825;29;20272;-92
2020/12/20 12:48:56;;;;;;;17.80;3.53;;;11.50;99.90;;;;;;4944990;29;20639;-90
2020/12/20 12:51:23;;;;;;;16.57;3.67;;;11.50;99.90;;;;;;4941619;29;20662;-91
2020/12/20 12:53:49;;;;;;;17.90;3.30;;;11.50;99.90;;;;;;4938778;29;20215;-91
2020/12/20 12:56:16;;;;;;;12.73;2.80;;;11.50;99.90;;;;;;4937999;29;20231;-91
2020/12/20 12:58:43;;;;;;;12.27;2.70;;;11.60;99.90;;;;;;4937514;29;20648;-92
2020/12/20 13:01:10;;;;;;;14.43;3.77;;;11.60;99.90;;;;;;4937091;29;20201;-91
2020/12/20 13:03:37;;;;;;;15.10;3.27;;;11.60;99.90;;;;;;4937486;29;20238;-91
2020/12/20 13:06:04;;;;;;;11.90;3.63;;;11.50;99.90;;;;;;4936891;29;20584;-89
2020/12/20 13:08:30;;;;;;;16.17;3.20;;;11.50;99.90;;;;;;4938923;29;20210;-92
2020/12/20 13:10:56;;;;;;;16.23;3.40;;;11.40;99.90;;;;;;4940385;29;20285;-91
2020/12/20 13:13:22;;;;;;;15.30;3.70;;;11.50;99.90;;;;;;4940922;29;20210;-92
2020/12/20 13:15:50;;;;;;;19.00;3.23;;;11.40;99.90;;;;;;4941362;29;20241;-91
2020/12/20 13:18:16;;;;;;;15.30;3.80;;;11.40;99.90;;;;;;4941265;29;20557;-91
2020/12/20 13:20:42;;;;;;;19.33;3.93;;;11.40;99.90;;;;;;4940282;29;20205;-93
2020/12/20 13:23:09;;;;;;;14.50;3.20;;;11.50;99.90;;;;;;4940062;29;20252;-91
2020/12/20 13:25:35;;;;;;;13.40;3.73;;;11.60;99.90;;;;;;4940554;29;20229;-91
2020/12/20 13:28:01;;;;;;;15.53;3.07;;;11.80;99.90;;;;;;4940470;29;20231;-92
2020/12/20 13:30:28;;;;;;;19.10;4.13;;;11.80;99.90;;;;;;4941186;29;20207;-91
2020/12/20 13:32:55;;;;;;;15.80;4.30;;;11.90;99.90;;;;;;4940518;29;20201;-92
2020/12/20 13:35:23;;;;;;;13.97;4.00;;;11.80;99.90;;;;;;4940446;29;20213;-91
2020/12/20 13:37:49;;;;;;;18.83;3.60;;;11.80;99.90;;;;;;4940158;29;20696;-92
2020/12/20 13:40:15;;;;;;;17.73;3.77;;;11.60;99.90;;;;;;4939951;29;20285;-91
2020/12/20 13:42:42;;;;;;;16.87;3.47;;;11.60;99.90;;;;;;4939817;29;20239;-91
2020/12/20 13:45:08;;;;;;;17.50;3.80;;;11.60;99.90;;;;;;4940691;29;20273;-92
2020/12/20 13:47:34;;;;;;;16.03;3.67;;;11.70;99.90;;;;;;4940092;29;20235;-92
2020/12/20 13:50:02;;;;;;;13.97;3.73;;;11.60;99.90;;;;;;4939977;29;20203;-92
2020/12/20 13:52:28;;;;;;;11.53;3.10;;;11.60;99.90;;;;;;4939600;29;20208;-92
2020/12/20 13:54:54;;;;;;;16.93;3.73;;;11.70;99.90;;;;;;4939653;29;20267;-92
2020/12/20 13:57:21;;;;;;;13.90;3.33;;;11.80;99.90;;;;;;4939756;29;20334;-92
2020/12/20 13:59:47;;;;;;;17.27;3.93;;;11.90;99.90;;;;;;4940212;29;20214;-92
2020/12/20 14:02:13;;;;;;;8.97;3.77;;;11.90;99.90;;;;;;4939573;29;20234;-92
2020/12/20 14:04:39;;;;;;;12.57;3.63;;;12.00;99.90;;;;;;4940490;29;20215;-93
2020/12/20 14:07:06;;;;;;;17.30;3.80;;;11.90;99.90;;;;;;4939618;29;20287;-93
2020/12/20 14:09:33;;;;;;;11.20;3.43;;;11.90;99.90;;;;;;4940143;29;20215;-92
2020/12/20 14:11:59;;;;;;;20.67;4.03;;;11.80;99.90;;;;;;4939588;29;20212;-91
2020/12/20 14:14:27;;;;;;;13.17;3.73;;;11.70;99.90;;;;;;4939429;29;20218;-92
2020/12/20 14:16:53;;;;;;;17.23;3.97;;;11.80;99.90;;;;;;4940092;29;20647;-91
2020/12/20 14:19:20;;;;;;;14.60;4.07;;;11.90;99.90;;;;;;4938904;29;20198;-90
2020/12/20 14:21:46;;;;;;;17.23;3.80;;;11.80;99.90;;;;;;4939766;29;20233;-91
2020/12/20 14:24:14;;;;;;;11.73;3.40;;;11.60;99.90;;;;;;4939381;29;20196;-92
2020/12/20 14:26:41;;;;;;;12.23;3.47;;;11.60;99.90;;;;;;4939185;29;20242;-92
2020/12/20 14:29:07;;;;;;;13.73;4.17;;;11.60;99.90;;;;;;4939059;29;20211;-92
2020/12/20 14:31:34;;;;;;;18.03;4.27;;;11.50;99.90;;;;;;4939233;29;20196;-92
2020/12/20 14:34:00;;;;;;;13.97;3.80;;;11.50;99.90;;;;;;4939308;29;20198;-91
2020/12/20 14:36:27;;;;;;;15.50;3.97;;;11.50;99.90;;;;;;4939139;29;20218;-91
2020/12/20 14:38:54;;;;;;;10.93;3.57;;;11.30;99.90;;;;;;4938930;29;20691;-92
2020/12/20 14:44:05;;;;;;;14.10;3.33;;;11.20;99.90;;;;;;5037054;23;20607;-91